Time,TemperatureF,DewpointF,PressureIn,WindDirection,WindDirectionDegrees,WindSpeedMPH,WindSpeedGustMPH,Humidity,HourlyPrecipIn,Conditions,Clouds,dailyrainin,SoftwareType,DateUTC
2013-01-03 00:03:00,47.8,43.5,30.29,NNW,337,3.6,3.6,85,0.00,,---,0.00,VWS V13.01,2013-01-02 22:03:00,
2013-01-03 00:08:00,47.5,43.2,30.28,NNE,22,0.9,3.8,85,0.00,,---,0.00,VWS V13.01,2013-01-02 22:08:00,
2013-01-03 00:13:00,47.3,43.0,30.28,NNW,337,0.0,2.7,85,0.00,,---,0.00,VWS V13.01,2013-01-02 22:13:00,
2013-01-03 00:18:00,47.1,42.8,30.29,NNW,337,2.9,2.9,85,0.00,,---,0.00,VWS V13.01,2013-01-02 22:18:00,
2013-01-03 00:23:00,47.1,42.8,30.29,NNW,337,2.9,3.1,85,0.00,,---,0.00,VWS V13.01,2013-01-02 22:23:00,
2013-01-03 00:28:00,47.1,42.8,30.29,North,0,3.6,3.6,85,0.00,,---,0.00,VWS V13.01,2013-01-02 22:28:00,
2013-01-03 00:33:00,46.9,42.6,30.29,NNW,337,0.0,4.3,85,0.00,,---,0.00,VWS V13.01,2013-01-02 22:33:00,
2013-01-03 00:38:00,46.9,42.6,30.29,North,0,0.0,2.9,85,0.00,,---,0.00,VWS V13.01,2013-01-02 22:38:00,
2013-01-03 00:43:00,46.9,42.6,30.29,North,0,1.8,2.9,85,0.00,,---,0.00,VWS V13.01,2013-01-02 22:43:00,
2013-01-03 00:48:00,46.9,42.6,30.29,North,0,3.4,3.4,85,0.00,,---,0.00,VWS V13.01,2013-01-02 22:48:00,
2013-01-03 00:53:00,46.9,42.6,30.29,NNE,22,0.0,4.3,85,0.00,,---,0.00,VWS V13.01,2013-01-02 22:53:00,
2013-01-03 00:58:00,46.9,42.6,30.29,North,0,2.2,2.2,85,0.00,,---,0.00,VWS V13.01,2013-01-02 22:58:00,
2013-01-03 01:03:00,46.9,42.6,30.29,NNE,22,0.0,2.5,85,0.00,,---,0.00,VWS V13.01,2013-01-02 23:03:00,
2013-01-03 01:08:00,46.9,42.6,30.29,NNE,22,1.6,2.5,85,0.00,,---,0.00,VWS V13.01,2013-01-02 23:08:00,
2013-01-03 01:13:00,46.9,42.6,30.29,North,0,2.0,2.9,85,0.00,,---,0.00,VWS V13.01,2013-01-02 23:13:00,
2013-01-03 01:19:00,46.8,42.5,30.29,NNW,337,0.7,3.1,85,0.00,,---,0.00,VWS V13.01,2013-01-02 23:19:00,
2013-01-03 01:24:00,46.6,42.3,30.29,NNE,22,2.0,3.6,85,0.00,,---,0.00,VWS V13.01,2013-01-02 23:24:00,
2013-01-03 01:28:00,46.6,42.3,30.29,NNW,337,1.1,1.1,85,0.00,,---,0.00,VWS V13.01,2013-01-02 23:28:00,
2013-01-03 01:33:00,46.2,42.0,30.29,North,0,2.0,3.6,85,0.00,,---,0.00,VWS V13.01,2013-01-02 23:33:00,
2013-01-03 01:38:00,46.2,42.0,30.29,WNW,292,1.8,2.2,85,0.00,,---,0.00,VWS V13.01,2013-01-02 23:38:00,
2013-01-03 01:44:00,46.2,42.0,30.29,NNE,22,2.5,4.3,85,0.00,,---,0.00,VWS V13.01,2013-01-02 23:44:00,
2013-01-03 01:49:00,46.2,42.2,30.29,North,0,2.5,2.5,86,0.00,,---,0.00,VWS V13.01,2013-01-02 23:49:00,
2013-01-03 01:54:00,46.2,42.2,30.29,North,0,2.7,3.6,86,0.00,,---,0.00,VWS V13.01,2013-01-02 23:54:00,
2013-01-03 01:59:00,46.2,42.2,30.30,North,0,0.0,1.1,86,0.00,,---,0.00,VWS V13.01,2013-01-02 23:59:00,
2013-01-03 02:04:00,46.2,42.2,30.30,NNE,22,0.0,4.0,86,0.00,,---,0.00,VWS V13.01,2013-01-03 00:04:00,
2013-01-03 02:09:00,46.2,42.2,30.30,NNE,22,2.2,3.6,86,0.00,,---,0.00,VWS V13.01,2013-01-03 00:09:00,
2013-01-03 02:14:00,46.2,42.2,30.30,North,0,3.4,4.0,86,0.00,,---,0.00,VWS V13.01,2013-01-03 00:14:00,
2013-01-03 02:19:00,46.2,42.2,30.30,NW,315,0.7,2.7,86,0.00,,---,0.00,VWS V13.01,2013-01-03 00:19:00,
2013-01-03 02:24:00,46.2,42.2,30.30,NNE,22,2.5,3.6,86,0.00,,---,0.00,VWS V13.01,2013-01-03 00:24:00,
2013-01-03 02:29:00,46.2,42.2,30.31,North,0,0.9,2.5,86,0.00,,---,0.00,VWS V13.01,2013-01-03 00:29:00,
2013-01-03 02:34:00,46.2,42.2,30.31,North,0,2.2,2.5,86,0.00,,---,0.00,VWS V13.01,2013-01-03 00:34:00,
2013-01-03 02:39:00,46.0,42.0,30.31,North,0,0.0,2.5,86,0.00,,---,0.00,VWS V13.01,2013-01-03 00:39:00,
2013-01-03 02:44:00,46.0,42.0,30.31,NNW,337,2.2,3.1,86,0.00,,---,0.00,VWS V13.01,2013-01-03 00:44:00,
2013-01-03 02:49:00,46.0,42.0,30.31,North,0,0.0,2.2,86,0.00,,---,0.00,VWS V13.01,2013-01-03 00:49:00,
2013-01-03 02:54:00,46.0,42.0,30.32,North,0,1.1,1.1,86,0.00,,---,0.00,VWS V13.01,2013-01-03 00:54:00,
2013-01-03 02:59:00,46.0,42.0,30.31,North,0,2.9,2.9,86,0.00,,---,0.00,VWS V13.01,2013-01-03 00:59:00,
2013-01-03 03:04:00,45.7,41.8,30.31,NNW,337,2.5,2.5,86,0.00,,---,0.00,VWS V13.01,2013-01-03 01:04:00,
2013-01-03 03:09:00,45.7,41.8,30.32,North,0,1.8,2.2,86,0.00,,---,0.00,VWS V13.01,2013-01-03 01:09:00,
2013-01-03 03:14:00,45.7,41.8,30.32,NNW,337,1.8,2.2,86,0.00,,---,0.00,VWS V13.01,2013-01-03 01:14:00,
2013-01-03 03:19:00,45.7,41.8,30.32,NNW,337,0.0,2.9,86,0.00,,---,0.00,VWS V13.01,2013-01-03 01:19:00,
2013-01-03 03:24:00,45.7,41.8,30.32,North,0,1.6,1.6,86,0.00,,---,0.00,VWS V13.01,2013-01-03 01:24:00,
2013-01-03 03:29:00,45.7,42.1,30.32,NNW,337,2.2,3.1,87,0.00,,---,0.00,VWS V13.01,2013-01-03 01:29:00,
2013-01-03 03:34:00,45.5,41.9,30.32,NNW,337,2.9,2.9,87,0.00,,---,0.00,VWS V13.01,2013-01-03 01:34:00,
2013-01-03 03:39:00,45.5,41.9,30.32,North,0,0.9,2.5,87,0.00,,---,0.00,VWS V13.01,2013-01-03 01:39:00,
2013-01-03 03:44:00,45.5,41.9,30.33,North,0,0.0,2.2,87,0.00,,---,0.00,VWS V13.01,2013-01-03 01:44:00,
2013-01-03 03:49:00,45.5,41.9,30.32,NNW,337,0.9,3.6,87,0.00,,---,0.00,VWS V13.01,2013-01-03 01:49:00,
2013-01-03 03:54:00,45.7,42.1,30.32,North,0,0.0,1.6,87,0.00,,---,0.00,VWS V13.01,2013-01-03 01:54:00,
2013-01-03 03:59:00,45.5,41.9,30.32,NNW,337,1.6,3.6,87,0.00,,---,0.00,VWS V13.01,2013-01-03 01:59:00,
2013-01-03 04:04:00,45.7,42.1,30.32,North,0,3.8,5.1,87,0.00,,---,0.00,VWS V13.01,2013-01-03 02:04:00,
2013-01-03 04:09:00,45.7,42.1,30.32,NE,45,0.0,4.0,87,0.00,,---,0.00,VWS V13.01,2013-01-03 02:09:00,
2013-01-03 04:14:00,45.7,42.1,30.32,NNE,22,0.0,3.1,87,0.00,,---,0.00,VWS V13.01,2013-01-03 02:14:00,
2013-01-03 04:19:00,45.9,42.3,30.32,North,0,1.8,1.8,87,0.00,,---,0.00,VWS V13.01,2013-01-03 02:19:00,
2013-01-03 04:24:00,45.9,42.3,30.33,NNW,337,1.8,4.5,87,0.00,,---,0.00,VWS V13.01,2013-01-03 02:24:00,
2013-01-03 04:29:00,46.0,42.3,30.32,NE,45,0.0,4.5,87,0.00,,---,0.00,VWS V13.01,2013-01-03 02:29:00,
2013-01-03 04:34:00,46.0,42.3,30.32,NW,315,0.0,4.5,87,0.00,,---,0.00,VWS V13.01,2013-01-03 02:34:00,
2013-01-03 04:39:00,46.0,42.3,30.32,NNE,22,1.8,2.9,87,0.00,,---,0.00,VWS V13.01,2013-01-03 02:39:00,
2013-01-03 04:44:00,46.0,42.3,30.32,NE,45,0.0,1.1,87,0.00,,---,0.00,VWS V13.01,2013-01-03 02:44:00,
2013-01-03 04:49:00,46.0,42.3,30.32,NE,45,0.0,2.2,87,0.00,,---,0.00,VWS V13.01,2013-01-03 02:49:00,
2013-01-03 04:54:00,46.0,42.3,30.32,NNW,337,0.0,1.6,87,0.00,,---,0.00,VWS V13.01,2013-01-03 02:54:00,
2013-01-03 05:00:00,46.0,42.3,30.32,North,0,0.9,2.5,87,0.00,,---,0.00,VWS V13.01,2013-01-03 03:00:00,
2013-01-03 05:05:00,46.0,42.3,30.32,NW,315,1.1,2.5,87,0.00,,---,0.00,VWS V13.01,2013-01-03 03:05:00,
2013-01-03 05:10:00,45.9,42.3,30.32,North,0,1.8,1.8,87,0.00,,---,0.00,VWS V13.01,2013-01-03 03:10:00,
2013-01-03 05:15:00,45.7,42.1,30.32,NNW,337,2.5,3.8,87,0.00,,---,0.00,VWS V13.01,2013-01-03 03:15:00,
2013-01-03 05:20:00,45.7,42.1,30.32,NNE,22,2.0,2.0,87,0.00,,---,0.00,VWS V13.01,2013-01-03 03:20:00,
2013-01-03 05:25:00,45.5,41.9,30.32,NNW,337,4.5,4.7,87,0.00,,---,0.00,VWS V13.01,2013-01-03 03:25:00,
2013-01-03 05:31:00,45.5,41.9,30.33,North,0,3.4,3.4,87,0.00,,---,0.00,VWS V13.01,2013-01-03 03:31:00,
2013-01-03 05:36:00,45.5,41.9,30.33,ESE,112,0.0,2.5,87,0.00,,---,0.00,VWS V13.01,2013-01-03 03:36:00,
2013-01-03 05:41:00,45.5,42.2,30.33,North,0,0.0,2.5,88,0.00,,---,0.00,VWS V13.01,2013-01-03 03:41:00,
2013-01-03 05:46:00,45.5,42.2,30.33,NNE,22,2.2,2.7,88,0.00,,---,0.00,VWS V13.01,2013-01-03 03:46:00,
2013-01-03 05:51:00,45.5,42.2,30.33,North,0,2.0,4.3,88,0.00,,---,0.00,VWS V13.01,2013-01-03 03:51:00,
2013-01-03 05:56:00,45.5,42.2,30.33,North,0,3.1,3.6,88,0.00,,---,0.00,VWS V13.01,2013-01-03 03:56:00,
2013-01-03 06:01:00,45.5,42.2,30.33,NNE,22,1.8,2.5,88,0.00,,---,0.00,VWS V13.01,2013-01-03 04:01:00,
2013-01-03 06:06:00,45.3,42.0,30.33,North,0,0.0,3.1,88,0.00,,---,0.00,VWS V13.01,2013-01-03 04:06:00,
2013-01-03 06:11:00,45.3,42.0,30.33,NNE,22,2.2,3.6,88,0.00,,---,0.00,VWS V13.01,2013-01-03 04:11:00,
2013-01-03 06:16:00,45.1,41.8,30.34,NNW,337,2.0,2.0,88,0.00,,---,0.00,VWS V13.01,2013-01-03 04:16:00,
2013-01-03 06:21:00,45.1,41.8,30.34,North,0,2.0,4.0,88,0.00,,---,0.00,VWS V13.01,2013-01-03 04:21:00,
2013-01-03 06:27:00,45.1,41.8,30.34,North,0,3.6,5.1,88,0.00,,---,0.00,VWS V13.01,2013-01-03 04:27:00,
2013-01-03 06:32:00,45.1,41.8,30.34,North,0,2.7,4.5,88,0.00,,---,0.00,VWS V13.01,2013-01-03 04:32:00,
2013-01-03 06:37:00,45.1,41.8,30.33,NNW,337,2.2,4.7,88,0.00,,---,0.00,VWS V13.01,2013-01-03 04:37:00,
2013-01-03 06:42:00,45.1,41.8,30.34,North,0,2.5,4.3,88,0.00,,---,0.00,VWS V13.01,2013-01-03 04:42:00,
2013-01-03 06:47:00,45.1,41.8,30.34,NNE,22,0.0,2.2,88,0.00,,---,0.00,VWS V13.01,2013-01-03 04:47:00,
2013-01-03 06:52:00,45.1,41.8,30.34,NNE,22,1.3,1.3,88,0.00,,---,0.00,VWS V13.01,2013-01-03 04:52:00,
2013-01-03 06:57:00,45.1,41.8,30.35,North,0,1.8,2.5,88,0.00,,---,0.00,VWS V13.01,2013-01-03 04:57:00,
2013-01-03 07:01:00,45.1,41.8,30.35,North,0,2.2,2.5,88,0.00,,---,0.00,VWS V13.01,2013-01-03 05:01:00,
2013-01-03 07:02:00,45.1,41.8,30.35,North,0,2.2,2.5,88,0.00,,---,0.00,VWS V13.01,2013-01-03 05:02:00,
2013-01-03 07:03:00,45.1,41.8,30.35,NNW,337,2.0,2.0,88,0.00,,---,0.00,VWS V13.01,2013-01-03 05:03:00,
2013-01-03 07:08:00,45.1,41.8,30.35,NNW,337,3.4,3.4,88,0.00,,---,0.00,VWS V13.01,2013-01-03 05:08:00,
2013-01-03 07:13:00,45.0,41.7,30.35,NNW,337,0.0,3.1,88,0.00,,---,0.00,VWS V13.01,2013-01-03 05:13:00,
2013-01-03 07:18:00,45.0,41.7,30.35,WNW,292,0.0,1.8,88,0.00,,---,0.00,VWS V13.01,2013-01-03 05:18:00,
2013-01-03 07:23:00,45.0,41.7,30.35,North,0,1.3,3.1,88,0.00,,---,0.00,VWS V13.01,2013-01-03 05:23:00,
2013-01-03 07:28:00,45.0,41.7,30.36,North,0,0.9,0.9,88,0.00,,---,0.00,VWS V13.01,2013-01-03 05:28:00,
2013-01-03 07:33:00,44.8,41.5,30.36,North,0,0.0,0.9,88,0.00,,---,0.00,VWS V13.01,2013-01-03 05:33:00,
2013-01-03 07:38:00,44.8,41.5,30.35,NNE,22,2.2,2.2,88,0.00,,---,0.00,VWS V13.01,2013-01-03 05:38:00,
2013-01-03 07:43:00,44.8,41.5,30.35,North,0,3.4,3.8,88,0.00,,---,0.00,VWS V13.01,2013-01-03 05:43:00,
2013-01-03 07:48:00,44.6,41.3,30.35,North,0,2.5,3.6,88,0.00,,---,0.00,VWS V13.01,2013-01-03 05:48:00,
2013-01-03 07:53:00,44.6,41.3,30.35,North,0,1.8,3.6,88,0.00,,---,0.00,VWS V13.01,2013-01-03 05:53:00,
2013-01-03 07:58:00,44.6,41.3,30.36,North,0,0.0,3.1,88,0.00,,---,0.00,VWS V13.01,2013-01-03 05:58:00,
2013-01-03 08:03:00,44.6,41.3,30.36,North,0,0.7,1.3,88,0.00,,---,0.00,VWS V13.01,2013-01-03 06:03:00,
2013-01-03 08:08:00,44.6,41.3,30.36,NNW,337,0.0,1.3,88,0.00,,---,0.00,VWS V13.01,2013-01-03 06:08:00,
2013-01-03 08:13:00,44.6,41.3,30.36,NW,315,2.2,3.1,88,0.00,,---,0.00,VWS V13.01,2013-01-03 06:13:00,
2013-01-03 08:18:00,44.6,41.3,30.36,NNW,337,1.8,2.2,88,0.00,,---,0.00,VWS V13.01,2013-01-03 06:18:00,
2013-01-03 08:23:00,44.8,41.5,30.36,North,0,0.0,2.7,88,0.00,,---,0.00,VWS V13.01,2013-01-03 06:23:00,
2013-01-03 08:28:00,44.8,41.5,30.36,NW,315,2.2,2.2,88,0.00,,---,0.00,VWS V13.01,2013-01-03 06:28:00,
2013-01-03 08:33:00,45.0,41.7,30.36,North,0,0.0,1.1,88,0.00,,---,0.00,VWS V13.01,2013-01-03 06:33:00,
2013-01-03 08:38:00,45.1,41.8,30.36,NNE,22,3.1,3.1,88,0.00,,---,0.00,VWS V13.01,2013-01-03 06:38:00,
2013-01-03 08:43:00,45.3,42.0,30.36,NNW,337,2.9,5.4,88,0.00,,---,0.00,VWS V13.01,2013-01-03 06:43:00,
2013-01-03 09:51:00,50.2,46.8,30.37,NE,45,0.0,1.8,88,0.00,,---,0.00,VWS V13.01,2013-01-03 07:51:00,
2013-01-03 09:56:00,50.5,47.1,30.37,NW,315,0.0,1.1,88,0.00,,---,0.00,VWS V13.01,2013-01-03 07:56:00,
2013-01-03 10:08:00,51.4,47.7,30.37,WNW,292,0.0,1.3,87,0.00,,---,0.00,VWS V13.01,2013-01-03 08:08:00,
2013-01-03 10:13:00,51.6,47.9,30.37,NW,315,0.0,1.3,87,0.00,,---,0.00,VWS V13.01,2013-01-03 08:13:00,
2013-01-03 10:28:00,52.5,48.4,30.38,NW,315,0.0,1.3,86,0.00,,---,0.00,VWS V13.01,2013-01-03 08:28:00,
2013-01-03 10:33:00,52.7,48.6,30.38,NW,315,0.0,1.3,86,0.00,,---,0.00,VWS V13.01,2013-01-03 08:33:00,
2013-01-03 10:38:00,52.9,48.8,30.37,North,0,0.0,1.3,86,0.00,,---,0.00,VWS V13.01,2013-01-03 08:38:00,
2013-01-03 10:43:00,53.2,49.1,30.38,North,0,0.0,2.7,86,0.00,,---,0.00,VWS V13.01,2013-01-03 08:43:00,
2013-01-03 10:48:00,53.4,49.0,30.38,North,0,3.1,3.1,85,0.00,,---,0.00,VWS V13.01,2013-01-03 08:48:00,
2013-01-03 10:53:00,53.4,49.0,30.37,NW,315,2.5,4.0,85,0.00,,---,0.00,VWS V13.01,2013-01-03 08:53:00,
2013-01-03 10:58:00,53.4,48.7,30.38,NNW,337,1.8,1.8,84,0.00,,---,0.00,VWS V13.01,2013-01-03 08:58:00,
2013-01-03 11:03:00,53.8,49.1,30.37,NNW,337,4.7,6.3,84,0.00,,---,0.00,VWS V13.01,2013-01-03 09:03:00,
2013-01-03 11:08:00,54.0,49.3,30.38,NNE,22,1.3,2.2,84,0.00,,---,0.00,VWS V13.01,2013-01-03 09:08:00,
2013-01-03 11:13:00,54.3,49.3,30.37,NNW,337,4.3,4.3,83,0.00,,---,0.00,VWS V13.01,2013-01-03 09:13:00,
2013-01-03 11:18:00,54.3,48.9,30.37,North,0,2.9,4.3,82,0.00,,---,0.00,VWS V13.01,2013-01-03 09:18:00,
2013-01-03 11:23:00,54.5,49.1,30.37,ENE,67,0.0,3.8,82,0.00,,---,0.00,VWS V13.01,2013-01-03 09:23:00,
2013-01-03 11:28:00,55.0,49.3,30.37,West,270,1.6,1.6,81,0.00,,---,0.00,VWS V13.01,2013-01-03 09:28:00,
2013-01-03 11:33:00,55.2,49.5,30.37,ESE,112,1.3,5.4,81,0.00,,---,0.00,VWS V13.01,2013-01-03 09:33:00,
2013-01-03 11:38:00,55.6,49.5,30.38,NE,45,1.8,1.8,80,0.00,,---,0.00,VWS V13.01,2013-01-03 09:38:00,
2013-01-03 11:43:00,55.9,49.8,30.37,East,90,0.0,2.2,80,0.00,,---,0.00,VWS V13.01,2013-01-03 09:43:00,
2013-01-03 11:48:00,56.3,49.9,30.38,East,90,0.0,1.3,79,0.00,,---,0.00,VWS V13.01,2013-01-03 09:48:00,
2013-01-03 11:53:00,56.7,49.9,30.37,ESE,112,0.0,4.0,78,0.00,,---,0.00,VWS V13.01,2013-01-03 09:53:00,
2013-01-03 11:58:00,57.0,50.2,30.37,SSW,202,1.8,1.8,78,0.00,,---,0.00,VWS V13.01,2013-01-03 09:58:00,
2013-01-03 12:03:00,57.4,50.3,30.37,ENE,67,0.0,3.1,77,0.00,,---,0.00,VWS V13.01,2013-01-03 10:03:00,
2013-01-03 12:08:00,57.4,49.9,30.37,NNW,337,2.0,4.0,76,0.00,,---,0.00,VWS V13.01,2013-01-03 10:08:00,
2013-01-03 12:13:00,57.6,49.8,30.36,NW,315,1.1,1.3,75,0.00,,---,0.00,VWS V13.01,2013-01-03 10:13:00,
2013-01-03 12:18:00,57.7,49.5,30.36,North,0,4.0,4.0,74,0.00,,---,0.00,VWS V13.01,2013-01-03 10:18:00,
2013-01-03 12:23:00,57.7,49.5,30.36,NE,45,0.0,2.7,74,0.00,,---,0.00,VWS V13.01,2013-01-03 10:23:00,
2013-01-03 12:28:00,57.9,49.3,30.36,ESE,112,3.6,3.6,73,0.00,,---,0.00,VWS V13.01,2013-01-03 10:28:00,
2013-01-03 12:33:00,57.9,48.9,30.36,East,90,0.0,3.6,72,0.00,,---,0.00,VWS V13.01,2013-01-03 10:33:00,
2013-01-03 12:38:00,58.1,49.1,30.36,NNW,337,7.6,7.6,72,0.00,,---,0.00,VWS V13.01,2013-01-03 10:38:00,
2013-01-03 12:43:00,58.3,49.3,30.35,NNE,22,4.7,5.4,72,0.00,,---,0.00,VWS V13.01,2013-01-03 10:43:00,
2013-01-03 12:48:00,58.3,49.0,30.35,North,0,5.1,6.5,71,0.00,,---,0.00,VWS V13.01,2013-01-03 10:48:00,
2013-01-03 12:53:00,58.3,48.6,30.35,NE,45,2.2,7.4,70,0.00,,---,0.00,VWS V13.01,2013-01-03 10:53:00,
2013-01-03 12:58:00,58.5,48.8,30.35,North,0,0.0,1.6,70,0.00,,---,0.00,VWS V13.01,2013-01-03 10:58:00,
2013-01-03 13:04:00,58.6,48.9,30.35,North,0,7.4,7.4,70,0.00,,---,0.00,VWS V13.01,2013-01-03 11:04:00,
2013-01-03 13:09:00,58.8,48.7,30.35,North,0,3.6,4.7,69,0.00,,---,0.00,VWS V13.01,2013-01-03 11:09:00,
2013-01-03 13:14:00,58.8,48.7,30.35,ESE,112,0.0,5.6,69,0.00,,---,0.00,VWS V13.01,2013-01-03 11:14:00,
2013-01-03 13:19:00,58.8,48.7,30.35,North,0,0.0,2.0,69,0.00,,---,0.00,VWS V13.01,2013-01-03 11:19:00,
2013-01-03 13:24:00,58.8,48.7,30.35,ENE,67,0.0,5.4,69,0.00,,---,0.00,VWS V13.01,2013-01-03 11:24:00,
2013-01-03 13:29:00,59.0,48.5,30.34,East,90,0.0,2.2,68,0.00,,---,0.00,VWS V13.01,2013-01-03 11:29:00,
2013-01-03 13:34:00,59.2,48.7,30.35,North,0,2.2,2.9,68,0.00,,---,0.00,VWS V13.01,2013-01-03 11:34:00,
2013-01-03 13:39:00,59.2,48.3,30.34,WNW,292,0.0,2.0,67,0.00,,---,0.00,VWS V13.01,2013-01-03 11:39:00,
2013-01-03 13:44:00,59.4,48.5,30.35,NW,315,0.0,4.7,67,0.00,,---,0.00,VWS V13.01,2013-01-03 11:44:00,
2013-01-03 13:49:00,59.4,48.0,30.35,NW,315,0.0,1.3,66,0.00,,---,0.00,VWS V13.01,2013-01-03 11:49:00,
2013-01-03 13:54:00,59.5,48.2,30.34,North,0,0.0,2.0,66,0.00,,---,0.00,VWS V13.01,2013-01-03 11:54:00,
2013-01-03 13:59:00,59.5,48.2,30.34,East,90,0.0,1.3,66,0.00,,---,0.00,VWS V13.01,2013-01-03 11:59:00,
2013-01-03 14:04:00,59.7,47.9,30.34,NNE,22,1.3,1.3,65,0.00,,---,0.00,VWS V13.01,2013-01-03 12:04:00,
2013-01-03 14:09:00,59.9,48.1,30.34,NNW,337,0.0,1.3,65,0.00,,---,0.00,VWS V13.01,2013-01-03 12:09:00,
2013-01-03 14:14:00,59.9,48.5,30.34,ESE,112,0.0,1.6,66,0.00,,---,0.00,VWS V13.01,2013-01-03 12:14:00,
2013-01-03 14:19:00,60.1,48.3,30.33,North,0,0.0,7.2,65,0.00,,---,0.00,VWS V13.01,2013-01-03 12:19:00,
2013-01-03 14:24:00,60.4,48.6,30.34,NNW,337,4.9,4.9,65,0.00,,---,0.00,VWS V13.01,2013-01-03 12:24:00,
2013-01-03 14:29:00,60.4,48.6,30.33,NW,315,2.0,6.9,65,0.00,,---,0.00,VWS V13.01,2013-01-03 12:29:00,
2013-01-03 14:34:00,60.1,48.3,30.34,NNE,22,3.4,3.4,65,0.00,,---,0.00,VWS V13.01,2013-01-03 12:34:00,
2013-01-03 14:39:00,59.7,47.9,30.34,NNE,22,2.5,5.1,65,0.00,,---,0.00,VWS V13.01,2013-01-03 12:39:00,
2013-01-03 14:44:00,59.5,47.7,30.34,North,0,4.3,4.3,65,0.00,,---,0.00,VWS V13.01,2013-01-03 12:44:00,
2013-01-03 14:49:00,59.2,47.9,30.34,NNE,22,1.1,4.7,66,0.00,,---,0.00,VWS V13.01,2013-01-03 12:49:00,
2013-01-03 14:54:00,58.8,47.5,30.34,NW,315,0.0,4.0,66,0.00,,---,0.00,VWS V13.01,2013-01-03 12:54:00,
2013-01-03 14:59:00,58.5,47.6,30.34,North,0,5.6,7.4,67,0.00,,---,0.00,VWS V13.01,2013-01-03 12:59:00,
2013-01-03 15:04:00,58.3,47.4,30.34,NNW,337,0.0,5.1,67,0.00,,---,0.00,VWS V13.01,2013-01-03 13:04:00,
2013-01-03 15:09:00,57.9,47.4,30.34,North,0,4.0,6.0,68,0.00,,---,0.00,VWS V13.01,2013-01-03 13:09:00,
2013-01-03 15:14:00,57.9,47.4,30.34,ENE,67,0.0,1.6,68,0.00,,---,0.00,VWS V13.01,2013-01-03 13:14:00,
2013-01-03 15:19:00,57.7,47.2,30.34,NNW,337,0.0,0.9,68,0.00,,---,0.00,VWS V13.01,2013-01-03 13:19:00,
2013-01-03 15:24:00,57.6,47.1,30.34,NNW,337,2.7,3.1,68,0.00,,---,0.00,VWS V13.01,2013-01-03 13:24:00,
2013-01-03 15:29:00,57.4,46.9,30.33,North,0,0.0,1.6,68,0.00,,---,0.00,VWS V13.01,2013-01-03 13:29:00,
2013-01-03 15:34:00,57.4,47.3,30.33,ENE,67,0.0,3.1,69,0.00,,---,0.00,VWS V13.01,2013-01-03 13:34:00,
2013-01-03 15:39:00,57.2,47.1,30.33,NNW,337,0.0,4.0,69,0.00,,---,0.00,VWS V13.01,2013-01-03 13:39:00,
2013-01-03 15:44:00,57.0,46.9,30.34,East,90,0.0,4.0,69,0.00,,---,0.00,VWS V13.01,2013-01-03 13:44:00,
2013-01-03 15:49:00,57.0,46.9,30.34,ESE,112,3.1,3.1,69,0.00,,---,0.00,VWS V13.01,2013-01-03 13:49:00,
2013-01-03 15:54:00,56.8,46.8,30.33,NNW,337,0.0,1.1,69,0.00,,---,0.00,VWS V13.01,2013-01-03 13:54:00,
2013-01-03 15:59:00,56.8,46.8,30.33,East,90,0.0,2.2,69,0.00,,---,0.00,VWS V13.01,2013-01-03 13:59:00,
2013-01-03 16:04:00,56.5,46.1,30.33,West,270,0.0,1.1,68,0.00,,---,0.00,VWS V13.01,2013-01-03 14:04:00,
2013-01-03 16:09:00,56.5,46.1,30.33,North,0,0.0,2.2,68,0.00,,---,0.00,VWS V13.01,2013-01-03 14:09:00,
2013-01-03 16:14:00,56.5,46.1,30.33,East,90,0.0,1.8,68,0.00,,---,0.00,VWS V13.01,2013-01-03 14:14:00,
2013-01-03 16:19:00,56.5,46.1,30.33,ENE,67,0.0,2.0,68,0.00,,---,0.00,VWS V13.01,2013-01-03 14:19:00,
2013-01-03 16:24:00,56.3,45.9,30.33,East,90,0.0,1.3,68,0.00,,---,0.00,VWS V13.01,2013-01-03 14:24:00,
2013-01-03 16:29:00,56.3,46.3,30.33,ENE,67,0.7,3.8,69,0.00,,---,0.00,VWS V13.01,2013-01-03 14:29:00,
2013-01-03 16:34:00,56.3,46.3,30.33,NE,45,0.0,1.1,69,0.00,,---,0.00,VWS V13.01,2013-01-03 14:34:00,
2013-01-03 16:39:00,56.1,46.1,30.33,ENE,67,0.0,2.7,69,0.00,,---,0.00,VWS V13.01,2013-01-03 14:39:00,
2013-01-03 16:44:00,56.1,46.1,30.32,North,0,0.0,2.2,69,0.00,,---,0.00,VWS V13.01,2013-01-03 14:44:00,
2013-01-03 16:49:00,55.9,45.9,30.32,ENE,67,0.0,1.3,69,0.00,,---,0.00,VWS V13.01,2013-01-03 14:49:00,
2013-01-03 16:55:00,55.9,45.9,30.32,NE,45,0.0,2.7,69,0.00,,---,0.00,VWS V13.01,2013-01-03 14:55:00,
2013-01-03 17:00:00,55.8,45.8,30.33,West,270,0.0,2.7,69,0.00,,---,0.00,VWS V13.01,2013-01-03 15:00:00,
2013-01-03 17:05:00,55.6,45.6,30.33,West,270,0.0,1.6,69,0.00,,---,0.00,VWS V13.01,2013-01-03 15:05:00,
2013-01-03 17:10:00,55.6,45.6,30.33,SW,225,0.0,1.6,69,0.00,,---,0.00,VWS V13.01,2013-01-03 15:10:00,
2013-01-03 17:15:00,55.4,45.4,30.33,ENE,67,0.0,1.6,69,0.00,,---,0.00,VWS V13.01,2013-01-03 15:15:00,
2013-01-03 17:20:00,55.2,45.2,30.33,ENE,67,0.0,1.6,69,0.00,,---,0.00,VWS V13.01,2013-01-03 15:20:00,
2013-01-03 17:25:00,55.2,45.2,30.33,NNW,337,0.0,1.6,69,0.00,,---,0.00,VWS V13.01,2013-01-03 15:25:00,
2013-01-03 17:30:00,55.0,45.4,30.33,East,90,0.0,1.6,70,0.00,,---,0.00,VWS V13.01,2013-01-03 15:30:00,
2013-01-03 17:35:00,55.0,45.4,30.33,ENE,67,0.0,1.6,70,0.00,,---,0.00,VWS V13.01,2013-01-03 15:35:00,
2013-01-03 17:40:00,54.7,45.1,30.34,NE,45,0.0,1.6,70,0.00,,---,0.00,VWS V13.01,2013-01-03 15:40:00,
2013-01-03 17:45:00,54.5,44.9,30.34,NE,45,0.0,1.6,70,0.00,,---,0.00,VWS V13.01,2013-01-03 15:45:00,
2013-01-03 17:50:00,54.3,45.1,30.34,NNE,22,0.0,1.6,71,0.00,,---,0.00,VWS V13.01,2013-01-03 15:50:00,
2013-01-03 17:55:00,54.1,44.9,30.34,NNE,22,0.0,1.6,71,0.00,,---,0.00,VWS V13.01,2013-01-03 15:55:00,
2013-01-03 18:00:00,54.1,44.9,30.34,NE,45,0.0,1.6,71,0.00,,---,0.00,VWS V13.01,2013-01-03 16:00:00,
2013-01-03 18:05:00,54.0,44.8,30.33,ENE,67,0.0,1.6,71,0.00,,---,0.00,VWS V13.01,2013-01-03 16:05:00,
2013-01-03 18:10:00,53.8,45.0,30.34,East,90,0.0,1.6,72,0.00,,---,0.00,VWS V13.01,2013-01-03 16:10:00,
2013-01-03 18:15:00,53.4,44.6,30.34,SSE,157,0.0,1.6,72,0.00,,---,0.00,VWS V13.01,2013-01-03 16:15:00,
2013-01-03 18:20:00,53.4,44.6,30.34,South,180,0.0,1.6,72,0.00,,---,0.00,VWS V13.01,2013-01-03 16:20:00,
2013-01-03 18:25:00,53.2,44.8,30.34,NNE,22,0.0,1.6,73,0.00,,---,0.00,VWS V13.01,2013-01-03 16:25:00,
2013-01-03 18:30:00,53.1,44.7,30.34,NNE,22,0.0,1.6,73,0.00,,---,0.00,VWS V13.01,2013-01-03 16:30:00,
2013-01-03 18:35:00,52.9,44.5,30.33,NE,45,0.0,1.6,73,0.00,,---,0.00,VWS V13.01,2013-01-03 16:35:00,
2013-01-03 18:40:00,52.7,44.3,30.34,ENE,67,0.0,1.6,73,0.00,,---,0.00,VWS V13.01,2013-01-03 16:40:00,
2013-01-03 18:45:00,52.7,44.7,30.33,ENE,67,0.0,1.6,74,0.00,,---,0.00,VWS V13.01,2013-01-03 16:45:00,
2013-01-03 18:50:00,52.5,44.5,30.34,NE,45,0.0,1.6,74,0.00,,---,0.00,VWS V13.01,2013-01-03 16:50:00,
2013-01-03 18:55:00,52.3,44.3,30.33,NE,45,0.0,1.6,74,0.00,,---,0.00,VWS V13.01,2013-01-03 16:55:00,
2013-01-03 19:00:00,52.3,44.3,30.34,NW,315,0.0,1.6,74,0.00,,---,0.00,VWS V13.01,2013-01-03 17:00:00,
2013-01-03 19:05:00,52.2,44.5,30.34,NNW,337,0.0,1.6,75,0.00,,---,0.00,VWS V13.01,2013-01-03 17:05:00,
2013-01-03 19:10:00,52.0,44.3,30.34,NNW,337,0.0,1.6,75,0.00,,---,0.00,VWS V13.01,2013-01-03 17:10:00,
2013-01-03 19:16:00,52.0,44.3,30.33,NNE,22,0.0,1.6,75,0.00,,---,0.00,VWS V13.01,2013-01-03 17:16:00,
2013-01-03 19:21:00,51.8,44.1,30.34,North,0,0.0,1.6,75,0.00,,---,0.00,VWS V13.01,2013-01-03 17:21:00,
2013-01-03 19:26:00,51.6,44.0,30.34,North,0,0.0,1.6,75,0.00,,---,0.00,VWS V13.01,2013-01-03 17:26:00,
2013-01-03 19:31:00,51.6,44.3,30.34,North,0,0.0,1.6,76,0.00,,---,0.00,VWS V13.01,2013-01-03 17:31:00,
2013-01-03 19:36:00,51.6,44.3,30.34,NNW,337,0.0,1.6,76,0.00,,---,0.00,VWS V13.01,2013-01-03 17:36:00,
2013-01-03 19:41:00,51.6,44.3,30.33,North,0,0.0,1.6,76,0.00,,---,0.00,VWS V13.01,2013-01-03 17:41:00,
2013-01-03 19:46:00,51.4,44.1,30.33,North,0,0.0,1.6,76,0.00,,---,0.00,VWS V13.01,2013-01-03 17:46:00,
2013-01-03 19:51:00,51.4,44.1,30.34,North,0,0.0,0.7,76,0.00,,---,0.00,VWS V13.01,2013-01-03 17:51:00,
2013-01-03 19:56:00,51.3,44.3,30.34,North,0,0.0,2.2,77,0.00,,---,0.00,VWS V13.01,2013-01-03 17:56:00,
2013-01-03 20:01:00,51.3,44.3,30.33,NNW,337,0.0,1.3,77,0.00,,---,0.00,VWS V13.01,2013-01-03 18:01:00,
2013-01-03 20:06:00,51.1,44.2,30.33,North,0,0.0,1.3,77,0.00,,---,0.00,VWS V13.01,2013-01-03 18:06:00,
2013-01-03 20:11:00,51.1,44.2,30.33,North,0,0.0,1.3,77,0.00,,---,0.00,VWS V13.01,2013-01-03 18:11:00,
2013-01-03 20:16:00,50.9,44.0,30.33,NNE,22,0.0,1.3,77,0.00,,---,0.00,VWS V13.01,2013-01-03 18:16:00,
2013-01-03 20:21:00,50.7,43.8,30.33,North,0,0.0,1.3,77,0.00,,---,0.00,VWS V13.01,2013-01-03 18:21:00,
2013-01-03 20:26:00,50.7,43.8,30.33,NNE,22,0.0,1.3,77,0.00,,---,0.00,VWS V13.01,2013-01-03 18:26:00,
2013-01-03 20:31:00,50.7,43.8,30.33,North,0,0.0,1.3,77,0.00,,---,0.00,VWS V13.01,2013-01-03 18:31:00,
2013-01-03 20:36:00,50.7,43.8,30.33,NNE,22,0.0,1.3,77,0.00,,---,0.00,VWS V13.01,2013-01-03 18:36:00,
2013-01-03 20:41:00,50.7,44.1,30.33,NNE,22,0.0,1.3,78,0.00,,---,0.00,VWS V13.01,2013-01-03 18:41:00,
2013-01-03 20:46:00,50.5,43.9,30.33,North,0,0.0,3.4,78,0.00,,---,0.00,VWS V13.01,2013-01-03 18:46:00,
2013-01-03 20:51:00,50.5,43.9,30.33,NNE,22,2.2,3.1,78,0.00,,---,0.00,VWS V13.01,2013-01-03 18:51:00,
2013-01-03 20:56:00,50.4,43.8,30.33,NNE,22,0.0,1.3,78,0.00,,---,0.00,VWS V13.01,2013-01-03 18:56:00,
2013-01-03 21:01:00,50.4,43.8,30.33,North,0,1.3,2.0,78,0.00,,---,0.00,VWS V13.01,2013-01-03 19:01:00,
2013-01-03 21:06:00,50.4,43.5,30.33,NW,315,0.0,1.3,77,0.00,,---,0.00,VWS V13.01,2013-01-03 19:06:00,
2013-01-03 21:11:00,50.2,43.3,30.32,NE,45,0.0,1.3,77,0.00,,---,0.00,VWS V13.01,2013-01-03 19:11:00,
2013-01-03 21:16:00,50.2,43.3,30.32,NNE,22,2.9,2.9,77,0.00,,---,0.00,VWS V13.01,2013-01-03 19:16:00,
2013-01-03 22:25:00,49.3,42.1,30.32,ENE,67,0.0,2.0,76,0.00,,---,0.00,VWS V13.01,2013-01-03 20:25:00,
2013-01-03 22:30:00,49.3,42.1,30.31,East,90,0.0,2.0,76,0.00,,---,0.00,VWS V13.01,2013-01-03 20:30:00,
2013-01-03 22:35:00,49.1,41.9,30.31,NW,315,0.0,2.0,76,0.00,,---,0.00,VWS V13.01,2013-01-03 20:35:00,
2013-01-03 22:40:00,49.1,41.9,30.31,SSW,202,0.0,2.0,76,0.00,,---,0.00,VWS V13.01,2013-01-03 20:40:00,
2013-01-03 22:45:00,48.9,41.7,30.32,ENE,67,0.0,2.0,76,0.00,,---,0.00,VWS V13.01,2013-01-03 20:45:00,
2013-01-03 22:50:00,48.9,41.7,30.31,ESE,112,0.0,2.0,76,0.00,,---,0.00,VWS V13.01,2013-01-03 20:50:00,
2013-01-03 22:55:00,48.9,41.3,30.31,NW,315,0.0,2.0,75,0.00,,---,0.00,VWS V13.01,2013-01-03 20:55:00,
2013-01-03 23:00:00,48.7,41.1,30.31,NNW,337,0.0,2.0,75,0.00,,---,0.00,VWS V13.01,2013-01-03 21:00:00,
2013-01-03 23:06:00,48.7,41.1,30.31,NW,315,0.0,2.0,75,0.00,,---,0.00,VWS V13.01,2013-01-03 21:06:00,
2013-01-03 23:11:00,48.7,41.1,30.31,NNW,337,0.0,2.0,75,0.00,,---,0.00,VWS V13.01,2013-01-03 21:11:00,
2013-01-03 23:16:00,48.7,41.1,30.31,NNE,22,0.0,2.0,75,0.00,,---,0.00,VWS V13.01,2013-01-03 21:16:00,
2013-01-03 23:21:00,48.6,41.0,30.31,North,0,0.0,2.0,75,0.00,,---,0.00,VWS V13.01,2013-01-03 21:21:00,
2013-01-03 23:26:00,48.6,41.4,30.31,NNE,22,0.0,2.0,76,0.00,,---,0.00,VWS V13.01,2013-01-03 21:26:00,
2013-01-03 23:31:00,48.4,41.2,30.31,NNE,22,0.0,2.0,76,0.00,,---,0.00,VWS V13.01,2013-01-03 21:31:00,
2013-01-03 23:36:00,48.4,41.2,30.30,ENE,67,0.0,2.0,76,0.00,,---,0.00,VWS V13.01,2013-01-03 21:36:00,
2013-01-03 23:43:00,48.2,41.0,30.30,NNE,22,0.0,2.0,76,0.00,,---,0.00,VWS V13.01,2013-01-03 21:43:00,